sensor_id;sensor_type;location;lat;lon;timestamp;temperature;humidity
52211;DHT22;38179;52.756;6.906;2023-04-25T00:00:11;6.40;99.90
52211;DHT22;38179;52.756;6.906;2023-04-25T00:02:37;6.40;99.90
52211;DHT22;38179;52.756;6.906;2023-04-25T00:05:03;6.30;99.90
52211;DHT22;38179;52.756;6.906;2023-04-25T00:07:30;6.30;99.90
52211;DHT22;38179;52.756;6.906;2023-04-25T00:09:56;6.30;99.90
52211;DHT22;38179;52.756;6.906;2023-04-25T00:12:22;6.20;99.90
52211;DHT22;38179;52.756;6.906;2023-04-25T00:14:48;6.20;99.90
52211;DHT22;38179;52.756;6.906;2023-04-25T00:17:15;6.20;99.90
52211;DHT22;38179;52.756;6.906;2023-04-25T00:19:42;6.20;99.90
52211;DHT22;38179;52.756;6.906;2023-04-25T00:22:10;6.10;99.90
52211;DHT22;38179;52.756;6.906;2023-04-25T00:24:36;6.20;99.90
52211;DHT22;38179;52.756;6.906;2023-04-25T00:27:01;6.20;99.90
52211;DHT22;38179;52.756;6.906;2023-04-25T00:29:27;6.20;99.90
52211;DHT22;38179;52.756;6.906;2023-04-25T00:31:53;6.20;99.90
52211;DHT22;38179;52.756;6.906;2023-04-25T00:34:19;6.20;99.90
52211;DHT22;38179;52.756;6.906;2023-04-25T00:36:44;6.20;99.90
52211;DHT22;38179;52.756;6.906;2023-04-25T00:39:11;6.20;99.90
52211;DHT22;38179;52.756;6.906;2023-04-25T00:41:36;6.10;99.90
52211;DHT22;38179;52.756;6.906;2023-04-25T00:44:03;6.10;99.90
52211;DHT22;38179;52.756;6.906;2023-04-25T00:46:30;6.10;99.90
52211;DHT22;38179;52.756;6.906;2023-04-25T00:48:56;6.10;99.90
52211;DHT22;38179;52.756;6.906;2023-04-25T00:51:22;6.00;99.90
52211;DHT22;38179;52.756;6.906;2023-04-25T00:53:48;6.00;99.90
52211;DHT22;38179;52.756;6.906;2023-04-25T00:56:15;6.00;99.90
52211;DHT22;38179;52.756;6.906;2023-04-25T00:58:41;6.00;99.90
52211;DHT22;38179;52.756;6.906;2023-04-25T01:01:08;5.90;99.90
52211;DHT22;38179;52.756;6.906;2023-04-25T01:03:34;5.80;99.90
52211;DHT22;38179;52.756;6.906;2023-04-25T01:06:09;5.80;99.90
52211;DHT22;38179;52.756;6.906;2023-04-25T01:08:35;5.80;99.90
52211;DHT22;38179;52.756;6.906;2023-04-25T01:11:01;5.70;99.90
52211;DHT22;38179;52.756;6.906;2023-04-25T01:13:27;5.70;99.90
52211;DHT22;38179;52.756;6.906;2023-04-25T01:15:52;5.70;99.90
52211;DHT22;38179;52.756;6.906;2023-04-25T01:18:18;5.70;99.90
52211;DHT22;38179;52.756;6.906;2023-04-25T01:20:44;5.70;99.90
52211;DHT22;38179;52.756;6.906;2023-04-25T01:23:11;5.60;99.90
52211;DHT22;38179;52.756;6.906;2023-04-25T01:25:37;5.60;99.90
52211;DHT22;38179;52.756;6.906;2023-04-25T01:28:04;5.70;99.90
52211;DHT22;38179;52.756;6.906;2023-04-25T01:30:29;5.60;99.90
52211;DHT22;38179;52.756;6.906;2023-04-25T01:32:55;5.60;99.90
52211;DHT22;38179;52.756;6.906;2023-04-25T01:35:21;5.70;99.90
52211;DHT22;38179;52.756;6.906;2023-04-25T01:37:49;5.60;99.90
52211;DHT22;38179;52.756;6.906;2023-04-25T01:40:15;5.60;99.90
52211;DHT22;38179;52.756;6.906;2023-04-25T01:42:41;5.50;99.90
52211;DHT22;38179;52.756;6.906;2023-04-25T01:45:08;5.50;99.90
52211;DHT22;38179;52.756;6.906;2023-04-25T01:47:33;5.50;99.90
52211;DHT22;38179;52.756;6.906;2023-04-25T01:50:03;5.50;99.90
52211;DHT22;38179;52.756;6.906;2023-04-25T01:52:29;5.40;99.90
52211;DHT22;38179;52.756;6.906;2023-04-25T01:54:55;5.40;99.90
52211;DHT22;38179;52.756;6.906;2023-04-25T01:57:21;5.40;99.90
52211;DHT22;38179;52.756;6.906;2023-04-25T01:59:46;5.30;99.90
52211;DHT22;38179;52.756;6.906;2023-04-25T02:02:12;5.30;99.90
52211;DHT22;38179;52.756;6.906;2023-04-25T02:04:38;5.30;99.90
52211;DHT22;38179;52.756;6.906;2023-04-25T02:07:03;5.30;99.90
52211;DHT22;38179;52.756;6.906;2023-04-25T02:09:29;5.30;99.90
52211;DHT22;38179;52.756;6.906;2023-04-25T02:11:55;5.20;99.90
52211;DHT22;38179;52.756;6.906;2023-04-25T02:14:20;5.20;99.90
52211;DHT22;38179;52.756;6.906;2023-04-25T02:16:46;5.20;99.90
52211;DHT22;38179;52.756;6.906;2023-04-25T02:19:12;5.20;99.90
52211;DHT22;38179;52.756;6.906;2023-04-25T02:21:38;5.20;99.90
52211;DHT22;38179;52.756;6.906;2023-04-25T02:24:04;5.10;99.90
52211;DHT22;38179;52.756;6.906;2023-04-25T02:26:29;5.20;99.90
52211;DHT22;38179;52.756;6.906;2023-04-25T02:28:58;5.20;99.90
52211;DHT22;38179;52.756;6.906;2023-04-25T02:31:24;5.20;99.90
52211;DHT22;38179;52.756;6.906;2023-04-25T02:33:49;5.20;99.90
52211;DHT22;38179;52.756;6.906;2023-04-25T02:36:16;5.20;99.90
52211;DHT22;38179;52.756;6.906;2023-04-25T02:38:41;5.20;99.90
52211;DHT22;38179;52.756;6.906;2023-04-25T02:41:07;5.20;99.90
52211;DHT22;38179;52.756;6.906;2023-04-25T02:43:33;5.20;99.90
52211;DHT22;38179;52.756;6.906;2023-04-25T02:45:58;5.20;99.90
52211;DHT22;38179;52.756;6.906;2023-04-25T02:48:25;5.30;99.90
52211;DHT22;38179;52.756;6.906;2023-04-25T02:50:51;5.20;99.90
52211;DHT22;38179;52.756;6.906;2023-04-25T02:53:17;5.20;99.90
52211;DHT22;38179;52.756;6.906;2023-04-25T02:55:43;5.20;99.90
52211;DHT22;38179;52.756;6.906;2023-04-25T02:58:08;5.20;99.90
52211;DHT22;38179;52.756;6.906;2023-04-25T03:00:34;5.20;99.90
52211;DHT22;38179;52.756;6.906;2023-04-25T03:03:00;5.30;99.90
52211;DHT22;38179;52.756;6.906;2023-04-25T03:05:25;5.20;99.90
52211;DHT22;38179;52.756;6.906;2023-04-25T03:07:51;5.30;99.90
52211;DHT22;38179;52.756;6.906;2023-04-25T03:10:17;5.30;99.90
52211;DHT22;38179;52.756;6.906;2023-04-25T03:12:42;5.20;99.90
52211;DHT22;38179;52.756;6.906;2023-04-25T03:15:08;5.30;99.90
52211;DHT22;38179;52.756;6.906;2023-04-25T03:17:34;5.30;99.90
52211;DHT22;38179;52.756;6.906;2023-04-25T03:20:00;5.20;99.90
52211;DHT22;38179;52.756;6.906;2023-04-25T03:22:26;5.30;99.90
52211;DHT22;38179;52.756;6.906;2023-04-25T03:24:51;5.30;99.90
52211;DHT22;38179;52.756;6.906;2023-04-25T03:27:17;5.20;99.90
52211;DHT22;38179;52.756;6.906;2023-04-25T03:29:43;5.30;99.90
52211;DHT22;38179;52.756;6.906;2023-04-25T03:32:08;5.30;99.90
52211;DHT22;38179;52.756;6.906;2023-04-25T03:34:34;5.20;99.90
52211;DHT22;38179;52.756;6.906;2023-04-25T03:37:00;5.20;99.90
52211;DHT22;38179;52.756;6.906;2023-04-25T03:39:26;5.20;99.90
52211;DHT22;38179;52.756;6.906;2023-04-25T03:41:52;5.20;99.90
52211;DHT22;38179;52.756;6.906;2023-04-25T03:44:18;5.20;99.90
52211;DHT22;38179;52.756;6.906;2023-04-25T03:46:43;5.20;99.90
52211;DHT22;38179;52.756;6.906;2023-04-25T03:49:09;5.20;99.90
52211;DHT22;38179;52.756;6.906;2023-04-25T03:51:35;5.10;99.90
52211;DHT22;38179;52.756;6.906;2023-04-25T03:54:01;5.20;99.90
52211;DHT22;38179;52.756;6.906;2023-04-25T03:56:26;5.20;99.90
52211;DHT22;38179;52.756;6.906;2023-04-25T03:58:52;5.20;99.90
52211;DHT22;38179;52.756;6.906;2023-04-25T04:01:18;5.20;99.90
52211;DHT22;38179;52.756;6.906;2023-04-25T04:03:43;5.20;99.90
52211;DHT22;38179;52.756;6.906;2023-04-25T04:06:09;5.20;99.90
52211;DHT22;38179;52.756;6.906;2023-04-25T04:08:36;5.20;99.90
52211;DHT22;38179;52.756;6.906;2023-04-25T04:11:01;5.10;99.90
52211;DHT22;38179;52.756;6.906;2023-04-25T04:13:27;5.10;99.90
52211;DHT22;38179;52.756;6.906;2023-04-25T04:15:53;5.20;99.90
52211;DHT22;38179;52.756;6.906;2023-04-25T04:18:19;5.20;99.90
52211;DHT22;38179;52.756;6.906;2023-04-25T04:20:45;5.20;99.90
52211;DHT22;38179;52.756;6.906;2023-04-25T04:23:11;5.10;99.90
52211;DHT22;38179;52.756;6.906;2023-04-25T04:25:37;5.10;99.90
52211;DHT22;38179;52.756;6.906;2023-04-25T04:28:03;5.10;99.90
52211;DHT22;38179;52.756;6.906;2023-04-25T04:30:28;5.10;99.90
52211;DHT22;38179;52.756;6.906;2023-04-25T04:32:58;5.00;99.90
52211;DHT22;38179;52.756;6.906;2023-04-25T04:35:24;5.00;99.90
52211;DHT22;38179;52.756;6.906;2023-04-25T04:37:50;5.00;99.90
52211;DHT22;38179;52.756;6.906;2023-04-25T04:40:15;5.00;99.90
52211;DHT22;38179;52.756;6.906;2023-04-25T04:42:42;5.00;99.90
52211;DHT22;38179;52.756;6.906;2023-04-25T04:45:08;4.90;99.90
52211;DHT22;38179;52.756;6.906;2023-04-25T04:47:34;4.90;99.90
52211;DHT22;38179;52.756;6.906;2023-04-25T04:50:02;4.90;99.90
52211;DHT22;38179;52.756;6.906;2023-04-25T04:52:28;4.90;99.90
52211;DHT22;38179;52.756;6.906;2023-04-25T04:54:54;4.90;99.90
52211;DHT22;38179;52.756;6.906;2023-04-25T04:57:20;4.90;99.90
52211;DHT22;38179;52.756;6.906;2023-04-25T04:59:45;4.90;99.90
52211;DHT22;38179;52.756;6.906;2023-04-25T05:02:11;4.90;99.90
52211;DHT22;38179;52.756;6.906;2023-04-25T05:04:37;4.90;99.90
52211;DHT22;38179;52.756;6.906;2023-04-25T05:07:02;4.90;99.90
52211;DHT22;38179;52.756;6.906;2023-04-25T05:09:28;4.90;99.90
52211;DHT22;38179;52.756;6.906;2023-04-25T05:11:54;4.90;99.90
52211;DHT22;38179;52.756;6.906;2023-04-25T05:14:20;4.90;99.90
52211;DHT22;38179;52.756;6.906;2023-04-25T05:16:47;5.00;99.90
52211;DHT22;38179;52.756;6.906;2023-04-25T05:19:12;5.00;99.90
52211;DHT22;38179;52.756;6.906;2023-04-25T05:21:38;5.10;99.90
52211;DHT22;38179;52.756;6.906;2023-04-25T05:24:04;5.10;99.90
52211;DHT22;38179;52.756;6.906;2023-04-25T05:26:30;5.20;99.90
52211;DHT22;38179;52.756;6.906;2023-04-25T05:28:56;5.20;99.90
52211;DHT22;38179;52.756;6.906;2023-04-25T05:31:22;5.20;99.90
52211;DHT22;38179;52.756;6.906;2023-04-25T05:33:48;5.20;99.90
52211;DHT22;38179;52.756;6.906;2023-04-25T05:36:14;5.10;99.90
52211;DHT22;38179;52.756;6.906;2023-04-25T05:38:39;5.20;99.90
52211;DHT22;38179;52.756;6.906;2023-04-25T05:41:05;5.20;99.90
52211;DHT22;38179;52.756;6.906;2023-04-25T05:43:31;5.20;99.90
52211;DHT22;38179;52.756;6.906;2023-04-25T05:45:57;5.20;99.90
52211;DHT22;38179;52.756;6.906;2023-04-25T05:48:22;5.20;99.90
52211;DHT22;38179;52.756;6.906;2023-04-25T05:50:48;5.20;99.90
52211;DHT22;38179;52.756;6.906;2023-04-25T05:53:14;5.20;99.90
52211;DHT22;38179;52.756;6.906;2023-04-25T05:55:39;5.30;99.90
52211;DHT22;38179;52.756;6.906;2023-04-25T05:58:05;5.30;99.90
52211;DHT22;38179;52.756;6.906;2023-04-25T06:00:32;5.30;99.90
52211;DHT22;38179;52.756;6.906;2023-04-25T06:02:58;5.40;99.90
52211;DHT22;38179;52.756;6.906;2023-04-25T06:05:23;5.40;99.90
52211;DHT22;38179;52.756;6.906;2023-04-25T06:07:49;5.40;99.90
52211;DHT22;38179;52.756;6.906;2023-04-25T06:10:15;5.40;99.90
52211;DHT22;38179;52.756;6.906;2023-04-25T06:12:41;5.50;99.90
52211;DHT22;38179;52.756;6.906;2023-04-25T06:15:07;5.50;99.90
52211;DHT22;38179;52.756;6.906;2023-04-25T06:17:33;5.60;99.90
52211;DHT22;38179;52.756;6.906;2023-04-25T06:19:59;5.70;99.90
52211;DHT22;38179;52.756;6.906;2023-04-25T06:22:24;5.70;99.90
52211;DHT22;38179;52.756;6.906;2023-04-25T06:24:50;5.70;99.90
52211;DHT22;38179;52.756;6.906;2023-04-25T06:27:16;5.80;99.90
52211;DHT22;38179;52.756;6.906;2023-04-25T06:29:41;5.80;99.90
52211;DHT22;38179;52.756;6.906;2023-04-25T06:32:07;5.80;99.90
52211;DHT22;38179;52.756;6.906;2023-04-25T06:34:33;5.80;99.90
52211;DHT22;38179;52.756;6.906;2023-04-25T06:36:59;5.90;99.90
52211;DHT22;38179;52.756;6.906;2023-04-25T06:39:24;5.90;99.90
52211;DHT22;38179;52.756;6.906;2023-04-25T06:41:50;6.00;99.90
52211;DHT22;38179;52.756;6.906;2023-04-25T06:44:16;6.10;99.90
52211;DHT22;38179;52.756;6.906;2023-04-25T06:46:42;6.10;99.90
52211;DHT22;38179;52.756;6.906;2023-04-25T06:49:07;6.20;99.90
52211;DHT22;38179;52.756;6.906;2023-04-25T06:51:33;6.20;99.90
52211;DHT22;38179;52.756;6.906;2023-04-25T06:53:59;6.20;99.90
52211;DHT22;38179;52.756;6.906;2023-04-25T06:56:25;6.20;99.90
52211;DHT22;38179;52.756;6.906;2023-04-25T06:58:51;6.20;99.90
52211;DHT22;38179;52.756;6.906;2023-04-25T07:01:16;6.20;99.90
52211;DHT22;38179;52.756;6.906;2023-04-25T07:03:42;6.20;99.90
52211;DHT22;38179;52.756;6.906;2023-04-25T07:06:08;6.20;99.90
52211;DHT22;38179;52.756;6.906;2023-04-25T07:08:33;6.20;99.90
52211;DHT22;38179;52.756;6.906;2023-04-25T07:10:59;6.20;99.90
52211;DHT22;38179;52.756;6.906;2023-04-25T07:13:25;6.30;99.90
52211;DHT22;38179;52.756;6.906;2023-04-25T07:15:51;6.30;99.90
52211;DHT22;38179;52.756;6.906;2023-04-25T07:18:16;6.30;99.90
52211;DHT22;38179;52.756;6.906;2023-04-25T07:20:42;6.30;99.90
52211;DHT22;38179;52.756;6.906;2023-04-25T07:23:08;6.40;99.90
52211;DHT22;38179;52.756;6.906;2023-04-25T07:25:33;6.40;99.90
52211;DHT22;38179;52.756;6.906;2023-04-25T07:28:00;6.50;99.90
52211;DHT22;38179;52.756;6.906;2023-04-25T07:30:26;6.50;99.90
52211;DHT22;38179;52.756;6.906;2023-04-25T07:32:51;6.60;99.90
52211;DHT22;38179;52.756;6.906;2023-04-25T07:35:17;6.60;99.90
52211;DHT22;38179;52.756;6.906;2023-04-25T07:37:43;6.70;99.90
52211;DHT22;38179;52.756;6.906;2023-04-25T07:40:08;6.70;99.90
52211;DHT22;38179;52.756;6.906;2023-04-25T07:42:35;6.70;99.90
52211;DHT22;38179;52.756;6.906;2023-04-25T07:45:00;6.70;99.90
52211;DHT22;38179;52.756;6.906;2023-04-25T07:47:26;6.80;99.90
52211;DHT22;38179;52.756;6.906;2023-04-25T07:49:52;6.80;99.90
52211;DHT22;38179;52.756;6.906;2023-04-25T07:52:18;6.80;99.90
52211;DHT22;38179;52.756;6.906;2023-04-25T07:54:43;6.80;99.90
52211;DHT22;38179;52.756;6.906;2023-04-25T07:57:09;6.80;99.90
52211;DHT22;38179;52.756;6.906;2023-04-25T07:59:35;6.90;99.90
52211;DHT22;38179;52.756;6.906;2023-04-25T08:02:01;6.90;99.90
52211;DHT22;38179;52.756;6.906;2023-04-25T08:04:27;6.90;99.90
52211;DHT22;38179;52.756;6.906;2023-04-25T08:06:54;6.90;99.90
52211;DHT22;38179;52.756;6.906;2023-04-25T08:09:20;6.90;99.90
52211;DHT22;38179;52.756;6.906;2023-04-25T08:11:45;7.10;99.90
52211;DHT22;38179;52.756;6.906;2023-04-25T08:14:11;7.00;99.90
52211;DHT22;38179;52.756;6.906;2023-04-25T08:16:37;7.10;99.90
52211;DHT22;38179;52.756;6.906;2023-04-25T08:19:03;7.20;99.90
52211;DHT22;38179;52.756;6.906;2023-04-25T08:21:30;7.30;99.90
52211;DHT22;38179;52.756;6.906;2023-04-25T08:23:57;7.40;99.90
52211;DHT22;38179;52.756;6.906;2023-04-25T08:26:23;7.40;99.90
52211;DHT22;38179;52.756;6.906;2023-04-25T08:28:49;7.40;99.90
52211;DHT22;38179;52.756;6.906;2023-04-25T08:31:15;7.40;99.90
52211;DHT22;38179;52.756;6.906;2023-04-25T08:33:42;7.40;99.90
52211;DHT22;38179;52.756;6.906;2023-04-25T08:36:07;7.50;99.90
52211;DHT22;38179;52.756;6.906;2023-04-25T08:38:33;7.60;99.90
52211;DHT22;38179;52.756;6.906;2023-04-25T08:40:59;7.80;99.90
52211;DHT22;38179;52.756;6.906;2023-04-25T08:43:26;7.80;99.90
52211;DHT22;38179;52.756;6.906;2023-04-25T08:45:54;7.80;99.90
52211;DHT22;38179;52.756;6.906;2023-04-25T08:48:21;7.70;99.90
52211;DHT22;38179;52.756;6.906;2023-04-25T08:50:50;7.40;99.90
52211;DHT22;38179;52.756;6.906;2023-04-25T08:53:22;7.30;99.90
52211;DHT22;38179;52.756;6.906;2023-04-25T08:55:50;7.20;99.90
52211;DHT22;38179;52.756;6.906;2023-04-25T08:58:16;7.10;99.90
52211;DHT22;38179;52.756;6.906;2023-04-25T09:00:43;6.90;99.90
52211;DHT22;38179;52.756;6.906;2023-04-25T09:03:11;6.90;99.90
52211;DHT22;38179;52.756;6.906;2023-04-25T09:05:36;6.80;99.90
52211;DHT22;38179;52.756;6.906;2023-04-25T09:08:02;6.80;99.90
52211;DHT22;38179;52.756;6.906;2023-04-25T09:10:28;6.80;99.90
52211;DHT22;38179;52.756;6.906;2023-04-25T09:13:07;6.90;99.90
52211;DHT22;38179;52.756;6.906;2023-04-25T09:16:07;6.90;99.90
52211;DHT22;38179;52.756;6.906;2023-04-25T09:18:27;7.10;99.90
52211;DHT22;38179;52.756;6.906;2023-04-25T09:20:53;7.20;99.90
52211;DHT22;38179;52.756;6.906;2023-04-25T09:23:19;7.40;99.90
52211;DHT22;38179;52.756;6.906;2023-04-25T09:25:49;7.50;99.90
52211;DHT22;38179;52.756;6.906;2023-04-25T09:28:15;7.70;99.90
52211;DHT22;38179;52.756;6.906;2023-04-25T09:30:41;7.70;99.90
52211;DHT22;38179;52.756;6.906;2023-04-25T09:33:08;7.70;99.90
52211;DHT22;38179;52.756;6.906;2023-04-25T09:35:41;7.70;99.90
52211;DHT22;38179;52.756;6.906;2023-04-25T09:38:08;7.80;99.90
52211;DHT22;38179;52.756;6.906;2023-04-25T09:40:34;7.90;99.90
52211;DHT22;38179;52.756;6.906;2023-04-25T09:43:00;7.90;99.90
52211;DHT22;38179;52.756;6.906;2023-04-25T09:45:25;7.90;99.90
52211;DHT22;38179;52.756;6.906;2023-04-25T09:47:59;8.00;99.90
52211;DHT22;38179;52.756;6.906;2023-04-25T09:50:28;8.10;99.90
52211;DHT22;38179;52.756;6.906;2023-04-25T09:53:03;8.30;99.90
52211;DHT22;38179;52.756;6.906;2023-04-25T09:55:31;8.30;99.90
52211;DHT22;38179;52.756;6.906;2023-04-25T09:57:57;8.20;99.90
52211;DHT22;38179;52.756;6.906;2023-04-25T10:00:26;8.10;99.90
52211;DHT22;38179;52.756;6.906;2023-04-25T10:02:52;8.00;99.90
52211;DHT22;38179;52.756;6.906;2023-04-25T10:05:19;7.70;99.90
52211;DHT22;38179;52.756;6.906;2023-04-25T10:07:45;7.40;99.90
52211;DHT22;38179;52.756;6.906;2023-04-25T10:10:12;7.20;99.90
52211;DHT22;38179;52.756;6.906;2023-04-25T10:12:38;7.10;99.90
52211;DHT22;38179;52.756;6.906;2023-04-25T10:15:05;7.20;99.90
52211;DHT22;38179;52.756;6.906;2023-04-25T10:17:33;7.20;99.90
52211;DHT22;38179;52.756;6.906;2023-04-25T10:20:00;7.30;99.90
52211;DHT22;38179;52.756;6.906;2023-04-25T10:22:31;7.30;99.90
52211;DHT22;38179;52.756;6.906;2023-04-25T10:24:58;7.30;99.90
52211;DHT22;38179;52.756;6.906;2023-04-25T10:27:24;7.30;99.90
52211;DHT22;38179;52.756;6.906;2023-04-25T10:30:08;7.60;99.90
52211;DHT22;38179;52.756;6.906;2023-04-25T10:32:36;7.70;99.90
52211;DHT22;38179;52.756;6.906;2023-04-25T10:35:12;7.80;99.90
52211;DHT22;38179;52.756;6.906;2023-04-25T10:37:38;8.00;99.90
52211;DHT22;38179;52.756;6.906;2023-04-25T10:40:22;8.10;99.90
52211;DHT22;38179;52.756;6.906;2023-04-25T10:42:48;8.10;99.90
52211;DHT22;38179;52.756;6.906;2023-04-25T10:45:14;8.20;99.90
52211;DHT22;38179;52.756;6.906;2023-04-25T10:47:43;8.10;99.90
52211;DHT22;38179;52.756;6.906;2023-04-25T10:50:16;7.80;99.90
52211;DHT22;38179;52.756;6.906;2023-04-25T10:52:42;7.60;99.90
52211;DHT22;38179;52.756;6.906;2023-04-25T10:55:08;7.50;99.90
52211;DHT22;38179;52.756;6.906;2023-04-25T10:57:41;7.50;99.90
52211;DHT22;38179;52.756;6.906;2023-04-25T11:02:36;7.70;99.90
52211;DHT22;38179;52.756;6.906;2023-04-25T11:05:02;7.60;99.90
52211;DHT22;38179;52.756;6.906;2023-04-25T11:07:38;7.70;99.90
52211;DHT22;38179;52.756;6.906;2023-04-25T11:10:04;7.80;99.90
52211;DHT22;38179;52.756;6.906;2023-04-25T11:12:31;8.00;99.90
52211;DHT22;38179;52.756;6.906;2023-04-25T11:15:04;8.20;99.90
52211;DHT22;38179;52.756;6.906;2023-04-25T11:17:30;8.10;99.90
52211;DHT22;38179;52.756;6.906;2023-04-25T11:19:56;8.20;99.90
52211;DHT22;38179;52.756;6.906;2023-04-25T11:22:22;8.30;99.90
52211;DHT22;38179;52.756;6.906;2023-04-25T11:24:47;8.40;99.90
52211;DHT22;38179;52.756;6.906;2023-04-25T11:27:13;8.40;99.90
52211;DHT22;38179;52.756;6.906;2023-04-25T11:29:40;8.40;99.90
52211;DHT22;38179;52.756;6.906;2023-04-25T11:32:06;8.30;99.90
52211;DHT22;38179;52.756;6.906;2023-04-25T11:34:32;8.30;99.90
52211;DHT22;38179;52.756;6.906;2023-04-25T11:36:59;8.10;99.90
52211;DHT22;38179;52.756;6.906;2023-04-25T11:39:25;7.90;99.90
52211;DHT22;38179;52.756;6.906;2023-04-25T11:41:51;7.80;99.90
52211;DHT22;38179;52.756;6.906;2023-04-25T11:44:17;7.80;99.90
52211;DHT22;38179;52.756;6.906;2023-04-25T11:46:43;7.90;99.90
52211;DHT22;38179;52.756;6.906;2023-04-25T11:49:09;8.10;99.90
52211;DHT22;38179;52.756;6.906;2023-04-25T11:51:41;8.10;99.90
52211;DHT22;38179;52.756;6.906;2023-04-25T11:54:08;7.90;99.90
52211;DHT22;38179;52.756;6.906;2023-04-25T11:56:34;7.70;99.90
52211;DHT22;38179;52.756;6.906;2023-04-25T11:59:00;7.60;99.90
52211;DHT22;38179;52.756;6.906;2023-04-25T12:01:30;7.50;99.90
52211;DHT22;38179;52.756;6.906;2023-04-25T12:03:56;7.50;99.90
52211;DHT22;38179;52.756;6.906;2023-04-25T12:06:26;7.50;99.90
52211;DHT22;38179;52.756;6.906;2023-04-25T12:09:04;7.60;99.90
52211;DHT22;38179;52.756;6.906;2023-04-25T12:11:30;7.70;99.90
52211;DHT22;38179;52.756;6.906;2023-04-25T12:14:03;8.00;99.90
52211;DHT22;38179;52.756;6.906;2023-04-25T12:16:39;8.30;99.90
52211;DHT22;38179;52.756;6.906;2023-04-25T12:19:06;8.50;99.90
52211;DHT22;38179;52.756;6.906;2023-04-25T12:21:32;8.70;99.90
52211;DHT22;38179;52.756;6.906;2023-04-25T12:24:11;8.80;99.90
52211;DHT22;38179;52.756;6.906;2023-04-25T12:27:19;9.10;99.90
52211;DHT22;38179;52.756;6.906;2023-04-25T12:29:27;9.20;99.90
52211;DHT22;38179;52.756;6.906;2023-04-25T12:31:53;9.10;99.90
52211;DHT22;38179;52.756;6.906;2023-04-25T12:34:20;9.20;99.90
52211;DHT22;38179;52.756;6.906;2023-04-25T12:36:46;9.40;99.90
52211;DHT22;38179;52.756;6.906;2023-04-25T12:39:16;9.30;99.90
52211;DHT22;38179;52.756;6.906;2023-04-25T12:41:42;9.30;99.90
52211;DHT22;38179;52.756;6.906;2023-04-25T12:44:08;9.40;99.90
52211;DHT22;38179;52.756;6.906;2023-04-25T12:46:34;9.40;99.90
52211;DHT22;38179;52.756;6.906;2023-04-25T12:48:59;9.60;99.90
52211;DHT22;38179;52.756;6.906;2023-04-25T12:51:25;9.60;99.90
52211;DHT22;38179;52.756;6.906;2023-04-25T12:53:53;9.70;99.90
52211;DHT22;38179;52.756;6.906;2023-04-25T12:56:19;9.70;99.90
52211;DHT22;38179;52.756;6.906;2023-04-25T12:58:45;9.90;99.90
52211;DHT22;38179;52.756;6.906;2023-04-25T13:01:12;10.00;99.90
52211;DHT22;38179;52.756;6.906;2023-04-25T13:03:39;10.20;99.90
52211;DHT22;38179;52.756;6.906;2023-04-25T13:06:06;10.30;99.90
52211;DHT22;38179;52.756;6.906;2023-04-25T13:08:32;10.20;99.90
52211;DHT22;38179;52.756;6.906;2023-04-25T13:10:58;10.20;99.90
52211;DHT22;38179;52.756;6.906;2023-04-25T13:13:23;9.90;99.90
52211;DHT22;38179;52.756;6.906;2023-04-25T13:15:49;9.90;99.90
52211;DHT22;38179;52.756;6.906;2023-04-25T13:18:15;10.00;99.90
52211;DHT22;38179;52.756;6.906;2023-04-25T13:20:41;9.80;99.90
52211;DHT22;38179;52.756;6.906;2023-04-25T13:23:07;9.70;99.90
52211;DHT22;38179;52.756;6.906;2023-04-25T13:25:32;9.40;99.90
52211;DHT22;38179;52.756;6.906;2023-04-25T13:27:58;9.10;99.90
52211;DHT22;38179;52.756;6.906;2023-04-25T13:30:24;8.90;99.90
52211;DHT22;38179;52.756;6.906;2023-04-25T13:32:49;8.90;99.90
52211;DHT22;38179;52.756;6.906;2023-04-25T13:35:16;8.70;99.90
52211;DHT22;38179;52.756;6.906;2023-04-25T13:37:42;8.70;99.90
52211;DHT22;38179;52.756;6.906;2023-04-25T13:40:10;8.80;99.90
52211;DHT22;38179;52.756;6.906;2023-04-25T13:42:36;9.00;99.90
52211;DHT22;38179;52.756;6.906;2023-04-25T13:45:02;9.20;99.90
52211;DHT22;38179;52.756;6.906;2023-04-25T13:47:28;9.50;99.90
52211;DHT22;38179;52.756;6.906;2023-04-25T13:49:55;9.70;99.90
52211;DHT22;38179;52.756;6.906;2023-04-25T13:52:21;9.60;99.90
52211;DHT22;38179;52.756;6.906;2023-04-25T13:54:47;9.50;99.90
52211;DHT22;38179;52.756;6.906;2023-04-25T13:57:12;9.40;99.90
52211;DHT22;38179;52.756;6.906;2023-04-25T13:59:38;9.20;99.90
52211;DHT22;38179;52.756;6.906;2023-04-25T14:02:04;9.30;99.90
52211;DHT22;38179;52.756;6.906;2023-04-25T14:04:30;9.20;99.90
52211;DHT22;38179;52.756;6.906;2023-04-25T14:06:55;9.20;99.90
52211;DHT22;38179;52.756;6.906;2023-04-25T14:09:21;9.20;99.90
52211;DHT22;38179;52.756;6.906;2023-04-25T14:11:51;9.30;99.90
52211;DHT22;38179;52.756;6.906;2023-04-25T14:14:18;9.70;99.90
52211;DHT22;38179;52.756;6.906;2023-04-25T14:16:43;9.90;99.90
52211;DHT22;38179;52.756;6.906;2023-04-25T14:19:09;10.00;99.90
52211;DHT22;38179;52.756;6.906;2023-04-25T14:21:35;9.70;99.90
52211;DHT22;38179;52.756;6.906;2023-04-25T14:24:01;9.30;99.90
52211;DHT22;38179;52.756;6.906;2023-04-25T14:26:26;9.00;99.90
52211;DHT22;38179;52.756;6.906;2023-04-25T14:28:52;8.50;99.90
52211;DHT22;38179;52.756;6.906;2023-04-25T14:31:18;8.20;99.90
52211;DHT22;38179;52.756;6.906;2023-04-25T14:33:43;8.30;99.90
52211;DHT22;38179;52.756;6.906;2023-04-25T14:36:09;8.50;99.90
52211;DHT22;38179;52.756;6.906;2023-04-25T14:38:35;8.80;99.90
52211;DHT22;38179;52.756;6.906;2023-04-25T14:41:01;8.90;99.90
52211;DHT22;38179;52.756;6.906;2023-04-25T14:43:27;9.10;99.90
52211;DHT22;38179;52.756;6.906;2023-04-25T14:45:53;9.20;99.90
52211;DHT22;38179;52.756;6.906;2023-04-25T14:48:19;9.40;99.90
52211;DHT22;38179;52.756;6.906;2023-04-25T14:50:45;9.70;99.90
52211;DHT22;38179;52.756;6.906;2023-04-25T14:53:11;10.00;99.90
52211;DHT22;38179;52.756;6.906;2023-04-25T14:55:37;10.00;99.90
52211;DHT22;38179;52.756;6.906;2023-04-25T14:58:03;9.90;99.90
52211;DHT22;38179;52.756;6.906;2023-04-25T15:00:29;9.90;99.90
52211;DHT22;38179;52.756;6.906;2023-04-25T15:02:56;9.90;99.90
52211;DHT22;38179;52.756;6.906;2023-04-25T15:05:22;10.10;99.90
52211;DHT22;38179;52.756;6.906;2023-04-25T15:07:48;10.20;99.90
52211;DHT22;38179;52.756;6.906;2023-04-25T15:10:14;10.40;99.90
52211;DHT22;38179;52.756;6.906;2023-04-25T15:12:41;10.40;99.90
52211;DHT22;38179;52.756;6.906;2023-04-25T15:15:08;10.40;99.90
52211;DHT22;38179;52.756;6.906;2023-04-25T15:17:43;10.40;99.90
52211;DHT22;38179;52.756;6.906;2023-04-25T15:20:09;10.60;99.90
52211;DHT22;38179;52.756;6.906;2023-04-25T15:22:36;10.70;99.90
52211;DHT22;38179;52.756;6.906;2023-04-25T15:25:02;10.60;99.90
52211;DHT22;38179;52.756;6.906;2023-04-25T15:27:28;10.50;99.90
52211;DHT22;38179;52.756;6.906;2023-04-25T15:29:54;10.20;99.90
52211;DHT22;38179;52.756;6.906;2023-04-25T15:32:21;10.10;99.90
52211;DHT22;38179;52.756;6.906;2023-04-25T15:34:47;9.90;99.90
52211;DHT22;38179;52.756;6.906;2023-04-25T15:37:13;9.80;99.90
52211;DHT22;38179;52.756;6.906;2023-04-25T15:39:39;9.90;99.90
52211;DHT22;38179;52.756;6.906;2023-04-25T15:42:04;10.30;99.90